Time;durP1;ratioP1;P1;durP2;ratioP2;P2;SDS_P1;SDS_P2;PMS_P1;PMS_P2;Temp;Humidity;BMP_temperature;BMP_pressure;BME280_temperature;BME280_humidity;BME280_pressure;Samples;Min_cycle;Max_cycle;Signal;HPM_P1;HPM_P2
2022/07/04 00:00:36;;;;;;;5.93;4.25;;;24.90;50.70;;;;;;5007535;28;20186;-86
2022/07/04 00:03:02;;;;;;;4.75;4.43;;;24.70;51.20;;;;;;5002546;28;20230;-85
2022/07/04 00:05:28;;;;;;;5.10;4.18;;;24.90;51.10;;;;;;5022553;28;20265;-86
2022/07/04 00:07:54;;;;;;;4.45;4.15;;;24.90;50.50;;;;;;5014926;28;20211;-86
2022/07/04 00:10:22;;;;;;;4.53;4.28;;;24.80;50.60;;;;;;5015626;28;20241;-84
2022/07/04 00:12:49;;;;;;;5.25;4.53;;;24.50;51.40;;;;;;5004785;28;20249;-84
2022/07/04 00:15:15;;;;;;;5.35;4.95;;;24.40;51.70;;;;;;5022839;28;20186;-85
2022/07/04 00:17:42;;;;;;;4.50;4.22;;;24.10;52.30;;;;;;5014284;28;20250;-86
2022/07/04 00:20:09;;;;;;;4.65;4.38;;;24.10;52.60;;;;;;5016446;28;20190;-85
2022/07/04 00:22:35;;;;;;;4.72;4.45;;;24.10;51.90;;;;;;5012370;28;20193;-85
2022/07/04 00:25:00;;;;;;;4.63;4.25;;;24.00;52.60;;;;;;5021199;28;20201;-86
2022/07/04 00:27:26;;;;;;;4.57;4.28;;;24.10;51.80;;;;;;5015589;28;20310;-87
2022/07/04 00:29:52;;;;;;;4.35;4.05;;;24.10;52.10;;;;;;5013822;28;20197;-86
2022/07/04 00:32:18;;;;;;;4.68;4.38;;;24.20;51.80;;;;;;5013534;28;20524;-88
2022/07/04 00:34:44;;;;;;;4.53;4.15;;;24.20;51.40;;;;;;5018577;28;20229;-85
2022/07/04 00:37:10;;;;;;;4.95;4.55;;;24.10;51.60;;;;;;5001087;28;20292;-86
2022/07/04 00:39:36;;;;;;;4.38;4.15;;;24.00;52.10;;;;;;5026760;28;20197;-84
2022/07/04 00:42:02;;;;;;;4.85;4.45;;;24.10;52.60;;;;;;5010873;28;20219;-85
2022/07/04 00:44:28;;;;;;;4.32;4.03;;;24.20;52.10;;;;;;5018041;28;20229;-86
2022/07/04 00:46:53;;;;;;;4.32;4.13;;;24.40;51.50;;;;;;5016787;28;20305;-84
2022/07/04 00:49:19;;;;;;;4.63;4.28;;;24.40;52.00;;;;;;5018761;28;20198;-87
2022/07/04 00:51:45;;;;;;;5.18;4.80;;;24.20;51.80;;;;;;5013627;28;20218;-86
2022/07/04 00:54:14;;;;;;;4.30;4.10;;;24.20;52.30;;;;;;4997998;28;20217;-87
2022/07/04 00:56:42;;;;;;;5.10;4.68;;;24.20;52.20;;;;;;5022371;28;20641;-86
2022/07/04 00:59:09;;;;;;;4.70;4.40;;;24.20;52.50;;;;;;5026078;28;20190;-86
2022/07/04 01:01:35;;;;;;;5.07;4.60;;;24.30;53.00;;;;;;5020022;28;20237;-85
2022/07/04 01:04:05;;;;;;;4.82;4.53;;;24.50;53.10;;;;;;5021285;28;20209;-86
2022/07/04 01:06:32;;;;;;;4.95;4.55;;;24.50;51.90;;;;;;5017102;28;20231;-85
2022/07/04 01:08:58;;;;;;;4.80;4.38;;;24.40;52.70;;;;;;5019351;28;20209;-85
2022/07/04 01:11:24;;;;;;;5.05;4.70;;;24.40;52.90;;;;;;5022404;28;20177;-85
2022/07/04 01:13:50;;;;;;;5.45;4.95;;;24.30;53.90;;;;;;4996421;28;20293;-85
2022/07/04 01:16:16;;;;;;;4.70;4.40;;;24.30;52.70;;;;;;5024722;28;20196;-85
2022/07/04 01:18:42;;;;;;;4.70;4.40;;;24.30;53.10;;;;;;5021312;28;20202;-85
2022/07/04 01:21:08;;;;;;;4.70;4.30;;;24.40;52.50;;;;;;5017019;28;20676;-87
2022/07/04 01:23:41;;;;;;;4.95;4.45;;;24.30;52.60;;;;;;5021149;28;20229;-86
2022/07/04 01:26:07;;;;;;;4.78;4.47;;;24.20;53.10;;;;;;5015329;28;20186;-85
2022/07/04 01:28:33;;;;;;;4.53;4.20;;;24.20;52.70;;;;;;5011712;28;20330;-85
2022/07/04 01:31:00;;;;;;;4.70;4.40;;;24.10;52.20;;;;;;5009606;28;20182;-84
2022/07/04 01:33:25;;;;;;;4.53;4.13;;;24.10;52.90;;;;;;4996283;28;20437;-85
2022/07/04 01:35:51;;;;;;;4.43;4.13;;;24.10;52.50;;;;;;5010829;28;20272;-85
2022/07/04 01:38:17;;;;;;;4.65;4.28;;;24.20;52.30;;;;;;5018081;28;20557;-85
2022/07/04 01:40:43;;;;;;;5.10;4.35;;;24.10;51.90;;;;;;5006302;28;20187;-85
2022/07/04 01:43:08;;;;;;;4.15;3.95;;;24.10;51.40;;;;;;5010640;28;20217;-86
2022/07/04 01:45:37;;;;;;;4.70;3.97;;;24.10;51.60;;;;;;5004980;28;20245;-86
2022/07/04 01:48:07;;;;;;;4.60;4.20;;;24.00;50.90;;;;;;5013330;28;20695;-85
2022/07/04 01:50:33;;;;;;;4.30;4.10;;;24.00;51.10;;;;;;5013597;28;20182;-85
2022/07/04 01:52:59;;;;;;;4.63;4.22;;;24.10;51.60;;;;;;5012297;28;20218;-85
2022/07/04 01:55:26;;;;;;;4.10;3.80;;;24.20;50.40;;;;;;5015200;28;20182;-85
2022/07/04 01:57:51;;;;;;;4.53;4.22;;;24.30;50.00;;;;;;5019342;28;20236;-85
2022/07/04 02:03:04;;;;;;;4.18;3.92;;;24.40;50.40;;;;;;5018985;28;20220;-86
2022/07/04 02:05:30;;;;;;;4.30;4.10;;;24.40;49.40;;;;;;5010317;28;20189;-84
2022/07/04 02:07:56;;;;;;;4.57;4.28;;;24.50;50.20;;;;;;5017002;28;20289;-85
2022/07/04 02:10:22;;;;;;;4.22;4.03;;;24.50;50.30;;;;;;4999091;28;20200;-86
2022/07/04 02:13:03;;;;;;;4.90;4.15;;;24.60;50.40;;;;;;5014905;28;20189;-85
2022/07/04 02:15:35;;;;;;;4.18;3.97;;;24.50;48.10;;;;;;5016087;28;20627;-86
2022/07/04 02:18:01;;;;;;;4.38;3.97;;;24.50;48.80;;;;;;5015173;28;20192;-85
2022/07/04 02:20:27;;;;;;;4.40;4.20;;;24.50;49.10;;;;;;5009209;28;20221;-85
2022/07/04 02:22:56;;;;;;;4.22;4.03;;;24.50;49.70;;;;;;5009086;28;20198;-87
2022/07/04 02:25:23;;;;;;;4.55;4.25;;;24.50;49.00;;;;;;5012506;28;20197;-84
2022/07/04 02:27:49;;;;;;;4.60;4.30;;;24.30;48.80;;;;;;5012957;28;20433;-86
2022/07/04 02:30:15;;;;;;;4.20;4.00;;;24.30;51.80;;;;;;4998990;28;20196;-86
2022/07/04 02:32:41;;;;;;;5.22;4.10;;;24.30;51.40;;;;;;5019978;28;20198;-84
2022/07/04 02:35:07;;;;;;;4.97;4.72;;;24.30;51.00;;;;;;4995665;28;20193;-86
2022/07/04 02:37:34;;;;;;;4.70;4.32;;;24.40;52.00;;;;;;5012625;28;20185;-85
2022/07/04 02:39:59;;;;;;;4.38;4.07;;;24.30;53.50;;;;;;4995035;28;20197;-85
2022/07/04 02:42:29;;;;;;;5.15;4.72;;;24.30;54.30;;;;;;5001910;28;20277;-84
2022/07/04 02:44:55;;;;;;;4.53;4.22;;;24.30;54.10;;;;;;5013838;28;20210;-85
2022/07/04 02:47:21;;;;;;;4.50;4.20;;;24.20;54.00;;;;;;5013669;28;20274;-85
2022/07/04 02:49:46;;;;;;;4.47;4.18;;;24.20;53.90;;;;;;5014984;28;20209;-85
2022/07/04 02:52:13;;;;;;;4.75;4.45;;;24.10;54.50;;;;;;5017332;28;20561;-86
2022/07/04 02:54:39;;;;;;;5.00;4.70;;;23.90;55.10;;;;;;5012312;28;20308;-86
2022/07/04 02:57:05;;;;;;;4.38;4.18;;;23.90;55.00;;;;;;5009983;28;20190;-86
2022/07/04 02:59:31;;;;;;;4.32;4.03;;;23.80;56.90;;;;;;5012731;28;20186;-85
2022/07/04 03:01:56;;;;;;;4.60;4.20;;;23.70;57.10;;;;;;5014623;28;20186;-86
2022/07/04 03:04:25;;;;;;;4.65;4.30;;;23.60;56.90;;;;;;4986825;28;20214;-86
2022/07/04 03:06:51;;;;;;;4.43;4.22;;;23.70;56.40;;;;;;5012754;28;20186;-86
2022/07/04 03:09:16;;;;;;;5.93;4.47;;;23.80;55.80;;;;;;5012354;28;20209;-86
2022/07/04 03:11:43;;;;;;;4.65;4.35;;;23.80;56.20;;;;;;5010534;28;20293;-85
2022/07/04 03:14:09;;;;;;;5.00;4.60;;;23.70;57.10;;;;;;5008139;28;20234;-86
2022/07/04 03:16:35;;;;;;;4.60;4.30;;;23.50;59.30;;;;;;5013065;28;20178;-86
2022/07/04 03:19:01;;;;;;;4.55;4.15;;;23.30;59.40;;;;;;5011310;28;20193;-85
2022/07/04 03:21:26;;;;;;;4.22;4.03;;;23.30;59.70;;;;;;5008594;28;20232;-85
2022/07/04 03:23:58;;;;;;;4.60;4.30;;;23.20;58.80;;;;;;4997023;28;20652;-85
2022/07/04 03:26:29;;;;;;;5.38;4.55;;;23.30;59.20;;;;;;4999020;28;20204;-85
2022/07/04 03:28:56;;;;;;;4.35;4.15;;;23.30;59.30;;;;;;5012782;28;20206;-88
2022/07/04 03:31:22;;;;;;;5.00;4.35;;;23.30;59.70;;;;;;5015408;28;20200;-85
2022/07/04 03:33:47;;;;;;;4.45;4.20;;;23.30;59.40;;;;;;5017757;28;20209;-86
2022/07/04 03:36:13;;;;;;;4.30;4.10;;;23.30;59.70;;;;;;5014160;28;20675;-87
2022/07/04 03:38:39;;;;;;;4.70;4.40;;;23.30;60.10;;;;;;5019329;28;20216;-85
2022/07/04 03:41:04;;;;;;;4.95;4.65;;;23.30;60.10;;;;;;5022955;28;20185;-85
2022/07/04 03:43:30;;;;;;;4.63;4.32;;;23.10;61.50;;;;;;5009175;28;20221;-88
2022/07/04 03:45:56;;;;;;;4.75;4.55;;;23.00;61.50;;;;;;5016375;28;20190;-84
2022/07/04 03:48:21;;;;;;;4.25;4.03;;;23.00;61.70;;;;;;5017379;28;20210;-88
2022/07/04 03:50:47;;;;;;;4.70;4.50;;;22.90;62.50;;;;;;5014859;28;20225;-86
2022/07/04 03:53:13;;;;;;;4.65;4.43;;;22.80;62.70;;;;;;4993344;28;20214;-86
2022/07/04 03:55:39;;;;;;;4.90;4.60;;;22.90;62.40;;;;;;5005167;28;20200;-86
2022/07/04 03:58:05;;;;;;;4.75;4.38;;;22.80;62.70;;;;;;5035170;28;20189;-87
2022/07/04 04:00:31;;;;;;;4.90;4.60;;;22.80;63.20;;;;;;5036629;28;20235;-86
2022/07/04 04:02:58;;;;;;;4.80;4.47;;;22.80;63.80;;;;;;5027334;28;20217;-84
2022/07/04 04:05:27;;;;;;;4.90;4.47;;;22.80;63.20;;;;;;5028070;28;20185;-85
2022/07/04 04:08:01;;;;;;;4.95;4.65;;;22.70;63.80;;;;;;5009074;28;20716;-85
2022/07/04 04:10:28;;;;;;;5.05;4.72;;;22.70;63.40;;;;;;5019443;28;20697;-85
2022/07/04 04:12:54;;;;;;;5.22;4.78;;;22.80;63.90;;;;;;5022255;28;20200;-88
2022/07/04 04:15:20;;;;;;;5.15;4.85;;;22.80;63.90;;;;;;5023684;28;20173;-84
2022/07/04 04:17:46;;;;;;;5.38;4.88;;;22.70;64.50;;;;;;5020947;28;20198;-85
2022/07/04 04:20:12;;;;;;;4.93;4.63;;;22.50;64.90;;;;;;5026600;28;20186;-86
2022/07/04 04:22:38;;;;;;;4.70;4.30;;;22.30;66.30;;;;;;5007916;28;20189;-85
2022/07/04 04:25:04;;;;;;;4.32;4.13;;;22.10;67.30;;;;;;5025492;28;20193;-84
2022/07/04 04:27:30;;;;;;;4.80;4.40;;;22.10;67.30;;;;;;5019668;28;20217;-85
2022/07/04 04:29:58;;;;;;;4.85;4.65;;;22.20;66.70;;;;;;5022011;28;20193;-85
2022/07/04 04:32:24;;;;;;;5.55;4.70;;;22.30;66.30;;;;;;5019346;28;20237;-85
2022/07/04 04:34:50;;;;;;;11.52;5.25;;;22.40;66.00;;;;;;5025963;28;20241;-85
2022/07/04 04:37:15;;;;;;;6.40;5.30;;;22.40;66.40;;;;;;5019880;28;20217;-85
2022/07/04 04:39:41;;;;;;;5.18;4.72;;;22.40;66.70;;;;;;5015696;28;20200;-85
2022/07/04 04:42:07;;;;;;;5.38;4.88;;;22.40;66.60;;;;;;5007970;28;20705;-85
2022/07/04 04:44:32;;;;;;;4.72;4.50;;;22.50;66.20;;;;;;5024606;28;20229;-85
2022/07/04 04:46:58;;;;;;;5.10;4.80;;;22.40;67.50;;;;;;5016558;28;20266;-85
2022/07/04 04:49:24;;;;;;;5.05;4.75;;;22.20;67.80;;;;;;5015866;28;20198;-86
2022/07/04 04:51:50;;;;;;;5.32;4.75;;;22.40;66.20;;;;;;5014081;28;20197;-87
2022/07/04 04:54:15;;;;;;;5.75;5.10;;;22.50;66.10;;;;;;5026695;28;20297;-86
2022/07/04 04:56:41;;;;;;;4.75;4.40;;;22.60;65.60;;;;;;5006863;28;20240;-85
2022/07/04 04:59:08;;;;;;;5.15;4.63;;;22.60;66.40;;;;;;5003560;28;20201;-86
2022/07/04 05:01:34;;;;;;;5.20;4.78;;;22.50;67.00;;;;;;5018964;28;20193;-85
2022/07/04 05:04:00;;;;;;;5.13;4.82;;;22.50;66.90;;;;;;5013189;28;20565;-85
2022/07/04 05:06:26;;;;;;;5.97;5.35;;;22.60;66.40;;;;;;5014277;28;20213;-86
2022/07/04 05:08:51;;;;;;;5.10;4.80;;;22.70;64.90;;;;;;5021055;28;20731;-86
2022/07/04 05:11:17;;;;;;;4.72;4.32;;;22.70;64.60;;;;;;5017948;28;20196;-85
2022/07/04 05:13:43;;;;;;;4.82;4.53;;;22.70;63.00;;;;;;5022442;28;20210;-86
2022/07/04 05:16:08;;;;;;;5.20;4.90;;;22.70;60.20;;;;;;5018312;28;20182;-88
2022/07/04 05:18:34;;;;;;;4.63;4.30;;;22.70;64.30;;;;;;5010433;28;20198;-86
2022/07/04 05:21:00;;;;;;;4.80;4.38;;;22.70;62.80;;;;;;5006557;28;20193;-85
2022/07/04 05:23:25;;;;;;;5.13;4.50;;;22.80;60.80;;;;;;5016933;28;20747;-85
2022/07/04 05:25:54;;;;;;;5.22;4.72;;;22.80;57.80;;;;;;5005829;28;20197;-85
2022/07/04 05:28:20;;;;;;;4.40;4.10;;;22.80;59.10;;;;;;5007812;28;20232;-86
2022/07/04 05:30:46;;;;;;;4.53;4.20;;;22.80;58.20;;;;;;5016291;28;20190;-86
2022/07/04 05:33:11;;;;;;;4.55;4.25;;;23.00;55.40;;;;;;5014382;28;20732;-86
2022/07/04 05:35:37;;;;;;;4.70;4.40;;;23.00;54.90;;;;;;5015834;28;20182;-87
2022/07/04 05:38:03;;;;;;;4.90;4.50;;;23.00;55.80;;;;;;5022137;28;20189;-86
2022/07/04 05:40:29;;;;;;;4.30;4.10;;;22.90;54.60;;;;;;5001041;28;20197;-85
2022/07/04 05:42:57;;;;;;;4.68;4.38;;;22.80;55.60;;;;;;5004736;28;20201;-87
2022/07/04 05:45:26;;;;;;;4.53;4.22;;;22.90;56.80;;;;;;5012100;28;20194;-85
2022/07/04 05:47:52;;;;;;;4.72;4.38;;;23.00;58.00;;;;;;5013563;28;20213;-85
2022/07/04 05:50:18;;;;;;;5.35;4.40;;;23.00;57.30;;;;;;5024512;28;20189;-85
2022/07/04 05:52:46;;;;;;;4.70;4.35;;;23.10;56.90;;;;;;5027772;28;20261;-86
2022/07/04 05:55:12;;;;;;;4.75;4.25;;;23.10;56.40;;;;;;5027876;28;20220;-85
2022/07/04 05:57:38;;;;;;;6.20;4.97;;;23.20;56.90;;;;;;5021170;28;20190;-88
2022/07/04 06:00:05;;;;;;;5.05;4.60;;;23.20;56.60;;;;;;5020866;28;20201;-87
2022/07/04 06:02:31;;;;;;;4.78;4.38;;;23.30;57.10;;;;;;5019610;28;20193;-85
2022/07/04 06:04:56;;;;;;;5.25;4.63;;;23.20;55.40;;;;;;5016349;28;20288;-85
2022/07/04 06:07:22;;;;;;;4.45;4.25;;;23.20;56.20;;;;;;5000983;28;20221;-86
2022/07/04 06:09:48;;;;;;;5.00;4.60;;;23.20;56.40;;;;;;5023788;28;20188;-85
2022/07/04 06:12:13;;;;;;;5.63;4.45;;;23.20;55.50;;;;;;5005902;28;20217;-86
2022/07/04 06:14:39;;;;;;;5.10;4.68;;;23.10;55.80;;;;;;5025880;28;20304;-85
2022/07/04 06:17:05;;;;;;;4.45;4.15;;;23.10;56.40;;;;;;5021160;28;20715;-85
2022/07/04 06:19:31;;;;;;;5.15;4.28;;;23.20;55.90;;;;;;5009761;28;20729;-85
2022/07/04 06:21:57;;;;;;;5.13;4.72;;;23.30;55.60;;;;;;5009438;28;20668;-84
2022/07/04 06:24:23;;;;;;;4.20;4.00;;;23.10;54.60;;;;;;5001462;28;20230;-85
2022/07/04 06:26:49;;;;;;;4.30;4.03;;;23.10;54.70;;;;;;5016052;28;20197;-84
2022/07/04 06:29:14;;;;;;;5.10;4.20;;;23.10;54.80;;;;;;5031729;28;20209;-82
2022/07/04 06:31:40;;;;;;;5.15;4.63;;;23.10;54.50;;;;;;5007354;28;20198;-86
2022/07/04 06:36:50;;;;;;;4.53;4.22;;;23.00;55.20;;;;;;5014086;28;20200;-85
2022/07/04 06:39:16;;;;;;;5.15;4.75;;;22.90;55.70;;;;;;5004062;28;20186;-85
2022/07/04 06:41:41;;;;;;;5.80;4.45;;;23.00;56.20;;;;;;5011368;28;20292;-84
2022/07/04 06:44:07;;;;;;;4.88;4.47;;;23.00;54.80;;;;;;5016462;28;20586;-85
2022/07/04 06:46:33;;;;;;;4.95;4.55;;;22.90;55.10;;;;;;5024686;28;20785;-84
2022/07/04 06:48:59;;;;;;;4.90;4.55;;;22.90;56.50;;;;;;4995613;28;20253;-84
2022/07/04 06:51:24;;;;;;;5.32;4.82;;;22.80;56.30;;;;;;5015952;28;20216;-85
2022/07/04 06:53:51;;;;;;;5.25;4.85;;;22.70;56.70;;;;;;5015479;28;20206;-85
2022/07/04 06:56:17;;;;;;;4.95;4.65;;;22.80;56.00;;;;;;5018296;28;20186;-86
2022/07/04 06:58:43;;;;;;;4.72;4.43;;;22.80;55.90;;;;;;5013924;28;20196;-85
2022/07/04 07:01:09;;;;;;;5.25;4.75;;;22.90;57.20;;;;;;5014350;28;20182;-84
2022/07/04 07:03:35;;;;;;;4.78;4.50;;;22.80;57.60;;;;;;5014851;28;20213;-85
2022/07/04 07:06:02;;;;;;;4.30;4.00;;;22.90;57.00;;;;;;5010481;28;20194;-85
2022/07/04 07:08:29;;;;;;;5.07;4.68;;;22.90;57.30;;;;;;5012987;28;20515;-84
2022/07/04 07:10:56;;;;;;;5.13;4.63;;;23.00;55.70;;;;;;5014494;28;20180;-82
2022/07/04 07:13:21;;;;;;;5.03;4.55;;;23.00;56.00;;;;;;5023814;28;20205;-84
2022/07/04 07:15:47;;;;;;;5.10;4.65;;;23.00;55.20;;;;;;4996373;28;20186;-85
2022/07/04 07:18:13;;;;;;;5.18;4.78;;;23.10;55.80;;;;;;5013720;28;20236;-85
2022/07/04 07:20:39;;;;;;;4.93;4.47;;;23.20;55.30;;;;;;5019843;28;20703;-84
2022/07/04 07:23:04;;;;;;;4.88;4.32;;;23.10;54.90;;;;;;5014431;28;20218;-85
2022/07/04 07:25:31;;;;;;;6.30;4.93;;;23.10;55.60;;;;;;5023591;28;20453;-85
2022/07/04 07:27:57;;;;;;;5.85;5.03;;;23.20;55.60;;;;;;5013009;28;20216;-85
2022/07/04 07:30:23;;;;;;;5.25;4.82;;;23.10;56.10;;;;;;5019468;28;20213;-84
2022/07/04 07:32:49;;;;;;;5.07;4.63;;;23.30;55.00;;;;;;5017669;28;20189;-84
2022/07/04 07:35:15;;;;;;;4.78;4.40;;;23.40;53.80;;;;;;5014341;28;20198;-85
2022/07/04 07:37:41;;;;;;;4.35;4.05;;;23.40;53.70;;;;;;5020925;28;20194;-84
2022/07/04 07:40:08;;;;;;;5.18;4.80;;;23.50;53.40;;;;;;5014505;28;20726;-85
2022/07/04 07:42:33;;;;;;;4.80;4.43;;;23.50;53.60;;;;;;5020497;28;20683;-85
2022/07/04 07:44:59;;;;;;;4.93;4.60;;;23.20;54.40;;;;;;5018687;28;20214;-85
2022/07/04 07:47:25;;;;;;;4.70;4.40;;;23.40;55.60;;;;;;5012601;28;20581;-84
2022/07/04 07:49:51;;;;;;;4.75;4.45;;;23.20;54.10;;;;;;5016115;28;20228;-85
2022/07/04 07:52:17;;;;;;;5.35;4.95;;;23.40;53.30;;;;;;5004421;28;20920;-84
2022/07/04 07:54:43;;;;;;;6.85;4.75;;;23.40;52.80;;;;;;5021652;28;20296;-85
2022/07/04 07:57:09;;;;;;;4.85;4.53;;;23.50;53.30;;;;;;5018583;28;20181;-84
2022/07/04 07:59:35;;;;;;;5.13;4.65;;;23.60;52.70;;;;;;5015242;28;20174;-85
2022/07/04 08:02:01;;;;;;;5.68;5.18;;;23.70;53.00;;;;;;5018983;28;20217;-84
2022/07/04 08:04:37;;;;;;;5.65;5.00;;;24.00;52.40;;;;;;5010122;28;20214;-85
2022/07/04 08:07:08;;;;;;;5.25;4.82;;;24.00;51.10;;;;;;5012157;28;20556;-86
2022/07/04 08:09:35;;;;;;;5.05;4.65;;;24.00;51.80;;;;;;5015293;28;20784;-85
2022/07/04 08:12:02;;;;;;;4.93;4.55;;;24.00;51.50;;;;;;5001201;28;20197;-86
2022/07/04 08:14:28;;;;;;;5.00;4.70;;;24.10;51.50;;;;;;4996273;28;20236;-86
2022/07/04 08:16:58;;;;;;;5.85;5.07;;;24.20;51.10;;;;;;5011108;28;20201;-85
2022/07/04 08:19:24;;;;;;;5.55;4.78;;;24.40;50.60;;;;;;5011799;28;20186;-85
2022/07/04 08:21:51;;;;;;;5.97;4.82;;;24.40;50.20;;;;;;5019406;28;20201;-85
2022/07/04 08:24:17;;;;;;;5.00;4.70;;;24.50;51.00;;;;;;5018914;28;20282;-84
2022/07/04 08:26:43;;;;;;;5.30;4.75;;;24.50;50.70;;;;;;4997965;28;20194;-85
2022/07/04 08:29:19;;;;;;;4.90;4.53;;;24.20;51.50;;;;;;5018626;28;20220;-86
2022/07/04 08:31:44;;;;;;;5.00;4.60;;;24.30;52.00;;;;;;5013863;28;20228;-85
2022/07/04 08:34:10;;;;;;;5.13;4.68;;;24.50;52.10;;;;;;5018899;28;20409;-84
2022/07/04 08:36:36;;;;;;;5.22;4.82;;;24.70;51.00;;;;;;5017670;28;20260;-84
2022/07/04 08:39:02;;;;;;;4.75;4.55;;;24.70;50.90;;;;;;5018447;28;20198;-85
2022/07/04 08:41:32;;;;;;;5.95;4.82;;;24.90;49.20;;;;;;5024350;28;20285;-85
2022/07/04 08:43:58;;;;;;;4.80;4.50;;;25.10;49.20;;;;;;5022808;28;20272;-84
2022/07/04 08:46:27;;;;;;;5.63;5.15;;;25.20;49.10;;;;;;5009853;28;20253;-85
2022/07/04 08:48:56;;;;;;;5.53;4.10;;;25.30;49.10;;;;;;5017909;28;20217;-84
2022/07/04 08:51:45;;;;;;;4.70;4.40;;;25.30;49.30;;;;;;5014246;28;20285;-85
2022/07/04 08:59:45;;;;;;;4.78;4.47;;;25.40;50.10;;;;;;5011236;28;20222;-84
2022/07/04 09:02:17;;;;;;;4.78;4.47;;;25.30;50.50;;;;;;5012489;28;20216;-85
2022/07/04 09:04:43;;;;;;;5.43;5.07;;;24.80;51.30;;;;;;5014192;28;20217;-85
2022/07/04 09:07:13;;;;;;;5.00;4.70;;;24.80;51.80;;;;;;5012803;28;20622;-85
2022/07/04 09:09:40;;;;;;;4.97;4.68;;;24.80;51.20;;;;;;5013456;28;20720;-84
2022/07/04 09:12:10;;;;;;;5.55;4.95;;;24.90;51.30;;;;;;5017381;28;20181;-84
2022/07/04 09:14:37;;;;;;;5.00;4.65;;;25.10;50.60;;;;;;5025325;28;20229;-84
2022/07/04 09:17:04;;;;;;;4.75;4.35;;;25.20;48.80;;;;;;5011645;28;20200;-85
2022/07/04 09:19:30;;;;;;;4.45;4.15;;;25.30;45.10;;;;;;5016312;28;20557;-85
2022/07/04 09:21:56;;;;;;;5.18;4.32;;;25.60;44.60;;;;;;5022153;28;20549;-84
2022/07/04 09:24:52;;;;;;;5.65;4.30;;;25.80;46.80;;;;;;5025519;28;20233;-86
2022/07/04 09:27:34;;;;;;;4.75;4.45;;;25.70;42.80;;;;;;5019989;28;20185;-86
2022/07/04 09:30:01;;;;;;;4.68;4.38;;;25.90;44.90;;;;;;5019703;28;20212;-85
2022/07/04 09:32:44;;;;;;;6.05;4.75;;;26.10;44.90;;;;;;5027447;28;20190;-86
2022/07/04 09:35:12;;;;;;;5.50;5.10;;;26.40;45.10;;;;;;5007897;28;20197;-84
2022/07/04 09:37:41;;;;;;;4.90;4.50;;;26.70;44.20;;;;;;5026322;28;20247;-88
2022/07/04 09:40:09;;;;;;;5.20;4.72;;;26.60;42.90;;;;;;5023996;28;20193;-85
2022/07/04 09:42:40;;;;;;;4.95;4.55;;;26.70;42.50;;;;;;5020934;28;20189;-85
2022/07/04 09:45:09;;;;;;;5.53;5.13;;;27.00;44.50;;;;;;5024198;28;20181;-86
2022/07/04 09:47:36;;;;;;;5.05;4.75;;;26.80;43.10;;;;;;5007047;28;20289;-84
2022/07/04 09:50:02;;;;;;;5.35;4.95;;;26.60;44.00;;;;;;5010966;28;20186;-86
2022/07/04 09:52:29;;;;;;;5.90;5.50;;;26.90;43.90;;;;;;5025512;28;20229;-84
2022/07/04 09:55:05;;;;;;;6.30;5.20;;;26.80;43.50;;;;;;5023562;28;20201;-84
2022/07/04 09:57:32;;;;;;;5.22;4.82;;;26.80;43.80;;;;;;5004677;28;20193;-85
2022/07/04 10:00:23;;;;;;;4.70;4.40;;;26.90;42.90;;;;;;5015825;28;20196;-86
2022/07/04 10:02:50;;;;;;;5.90;5.25;;;27.20;42.70;;;;;;5019984;28;20170;-85
2022/07/04 10:05:28;;;;;;;5.38;4.97;;;27.20;41.50;;;;;;5023775;28;20188;-85
2022/07/04 10:07:56;;;;;;;5.22;4.90;;;26.80;42.20;;;;;;5020679;28;20205;-85
2022/07/04 10:10:33;;;;;;;5.30;5.00;;;26.50;43.20;;;;;;5013325;28;20178;-85
2022/07/04 10:13:05;;;;;;;5.55;5.15;;;26.80;43.10;;;;;;5011941;28;20212;-85
2022/07/04 10:15:32;;;;;;;5.93;5.53;;;26.90;44.20;;;;;;5014773;28;20261;-85
2022/07/04 10:17:59;;;;;;;5.07;4.68;;;26.80;41.90;;;;;;5021128;28;20193;-86
2022/07/04 10:20:25;;;;;;;5.00;4.70;;;27.00;42.80;;;;;;5013729;28;20608;-84
2022/07/04 10:22:51;;;;;;;5.72;5.43;;;27.50;41.10;;;;;;5017994;28;20653;-85
2022/07/04 10:25:17;;;;;;;6.35;5.95;;;27.80;40.60;;;;;;5023979;28;20166;-86
2022/07/04 10:27:44;;;;;;;6.65;6.05;;;27.90;41.40;;;;;;5009145;28;20259;-87
2022/07/04 10:30:13;;;;;;;6.35;5.95;;;28.30;40.40;;;;;;5025940;28;20217;-87
2022/07/04 10:32:42;;;;;;;6.00;5.60;;;28.40;39.20;;;;;;5006368;28;20196;-87
2022/07/04 10:35:11;;;;;;;6.43;5.93;;;28.70;39.00;;;;;;5015204;28;20193;-86
2022/07/04 10:38:00;;;;;;;6.43;6.03;;;28.90;38.30;;;;;;5021764;28;20264;-85
2022/07/04 10:40:52;;;;;;;6.75;6.20;;;28.70;39.60;;;;;;5036596;28;20204;-85
2022/07/04 10:43:43;;;;;;;6.20;5.70;;;28.80;37.90;;;;;;5013757;28;20212;-86
2022/07/04 10:46:14;;;;;;;6.18;5.78;;;28.50;39.60;;;;;;5016037;28;20185;-86
2022/07/04 10:48:54;;;;;;;6.40;5.90;;;28.70;38.10;;;;;;5024139;28;20221;-88
2022/07/04 10:51:38;;;;;;;6.20;5.80;;;29.00;38.10;;;;;;5024957;28;20201;-85
2022/07/04 10:54:08;;;;;;;6.80;6.20;;;29.40;36.90;;;;;;5026554;28;20201;-85
2022/07/04 10:56:37;;;;;;;6.22;5.75;;;29.80;36.50;;;;;;5026878;28;20225;-87
2022/07/04 10:59:09;;;;;;;6.22;5.90;;;29.90;36.00;;;;;;5023692;28;20189;-86
2022/07/04 11:01:34;;;;;;;6.75;6.35;;;29.70;35.00;;;;;;5028176;28;20203;-84
2022/07/04 11:04:00;;;;;;;5.95;5.55;;;29.30;36.40;;;;;;5029591;28;20209;-86
2022/07/04 11:06:36;;;;;;;6.95;6.10;;;29.50;35.90;;;;;;5027877;28;20253;-86
2022/07/04 11:09:24;;;;;;;6.05;5.45;;;29.60;35.70;;;;;;5025598;28;20193;-86
2022/07/04 11:12:02;;;;;;;5.70;5.30;;;29.50;37.40;;;;;;5023080;28;20178;-85
2022/07/04 11:14:41;;;;;;;6.53;6.03;;;29.20;37.00;;;;;;5023730;28;20206;-88
2022/07/04 11:17:10;;;;;;;6.53;6.13;;;29.20;38.40;;;;;;5022702;28;20185;-87
2022/07/04 11:19:36;;;;;;;6.60;6.30;;;29.30;37.20;;;;;;5024618;28;20196;-86
2022/07/04 11:22:04;;;;;;;12.68;6.80;;;29.20;37.30;;;;;;4999699;28;20201;-86
2022/07/04 11:24:31;;;;;;;6.15;5.65;;;29.70;37.20;;;;;;4992005;28;20210;-85
2022/07/04 11:26:57;;;;;;;6.03;5.72;;;30.30;35.60;;;;;;5026288;28;20277;-85
2022/07/04 11:29:24;;;;;;;5.68;5.38;;;30.40;35.20;;;;;;5026439;28;20220;-85
2022/07/04 11:31:51;;;;;;;5.35;5.05;;;30.80;34.80;;;;;;5029433;28;20271;-88
2022/07/04 11:34:18;;;;;;;6.15;5.65;;;31.20;34.10;;;;;;5027348;28;20672;-85
2022/07/04 11:36:47;;;;;;;9.75;6.07;;;31.40;33.60;;;;;;5003122;28;20193;-86
2022/07/04 11:39:20;;;;;;;6.43;5.95;;;31.50;35.10;;;;;;5023146;28;20202;-85
2022/07/04 11:47:35;;;;;;;7.53;7.03;;;31.50;33.60;;;;;;5017620;28;20240;-87
2022/07/04 11:50:02;;;;;;;7.35;6.95;;;31.50;33.40;;;;;;5023798;28;20188;-86
2022/07/04 11:52:42;;;;;;;7.97;7.57;;;31.40;31.30;;;;;;5002617;28;20178;-87
2022/07/04 11:55:11;;;;;;;8.70;8.30;;;31.70;31.40;;;;;;5024931;28;20186;-87
2022/07/04 11:57:42;;;;;;;8.38;8.02;;;32.10;31.60;;;;;;5025698;28;21023;-85
2022/07/04 12:00:13;;;;;;;9.10;8.77;;;32.20;31.90;;;;;;5030248;28;20224;-85
2022/07/04 12:02:39;;;;;;;10.05;9.55;;;32.50;31.90;;;;;;5013393;28;20217;-86
2022/07/04 12:05:08;;;;;;;10.15;9.55;;;31.90;32.50;;;;;;5019948;28;20204;-87
2022/07/04 12:07:36;;;;;;;9.05;8.55;;;32.00;32.80;;;;;;5022384;28;20272;-88
2022/07/04 12:10:15;;;;;;;9.55;8.98;;;31.80;30.80;;;;;;5023358;28;20210;-85
2022/07/04 12:13:07;;;;;;;9.23;8.82;;;32.30;30.50;;;;;;5023323;28;20181;-85
2022/07/04 12:15:38;;;;;;;9.90;9.40;;;32.70;29.90;;;;;;5026072;28;20309;-86
2022/07/04 12:18:05;;;;;;;11.18;10.57;;;32.90;29.90;;;;;;5024235;28;20189;-85
2022/07/04 12:20:32;;;;;;;11.25;10.52;;;32.80;30.30;;;;;;5025798;28;20181;-85
2022/07/04 12:23:01;;;;;;;10.90;10.40;;;32.50;30.60;;;;;;5003581;28;20205;-86
2022/07/04 12:25:39;;;;;;;10.38;9.98;;;32.50;30.90;;;;;;5037873;28;20196;-86
2022/07/04 12:28:10;;;;;;;12.05;11.43;;;32.70;30.00;;;;;;5025157;28;20224;-88
2022/07/04 12:30:47;;;;;;;12.43;11.75;;;33.20;30.30;;;;;;5021510;28;20182;-86
2022/07/04 12:33:13;;;;;;;12.90;12.40;;;33.20;30.40;;;;;;5017771;28;20213;-85
2022/07/04 12:35:51;;;;;;;12.90;12.40;;;33.50;29.40;;;;;;5020996;28;20196;-87
2022/07/04 12:38:26;;;;;;;13.00;12.50;;;33.70;28.80;;;;;;5020589;28;20270;-85
2022/07/04 12:40:55;;;;;;;11.73;11.15;;;33.60;29.00;;;;;;5012175;28;20204;-86
2022/07/04 12:43:27;;;;;;;11.70;11.23;;;33.00;30.00;;;;;;5024148;28;20269;-85
2022/07/04 12:45:55;;;;;;;11.95;11.45;;;32.90;29.10;;;;;;5024713;28;20239;-85
2022/07/04 12:48:27;;;;;;;12.93;12.13;;;32.60;31.30;;;;;;5006720;28;20209;-86
2022/07/04 12:50:54;;;;;;;11.48;11.07;;;32.40;31.20;;;;;;5022658;28;20264;-88
2022/07/04 12:53:20;;;;;;;11.73;11.23;;;32.20;31.90;;;;;;5023991;28;20198;-88
2022/07/04 12:55:47;;;;;;;13.18;12.55;;;32.60;31.80;;;;;;4989242;28;20540;-86
2022/07/04 12:58:13;;;;;;;13.10;12.48;;;32.80;30.70;;;;;;4987197;28;20261;-86
2022/07/04 13:00:40;;;;;;;13.63;13.05;;;33.20;31.20;;;;;;5018568;28;20220;-88
2022/07/04 13:03:06;;;;;;;13.95;13.45;;;33.50;29.70;;;;;;5018214;28;20206;-85
2022/07/04 13:05:37;;;;;;;14.48;13.88;;;34.00;29.80;;;;;;5021393;28;20189;-86